Time;durP1;ratioP1;P1;durP2;ratioP2;P2;SDS_P1;SDS_P2;PMS_P1;PMS_P2;Temp;Humidity;BMP_temperature;BMP_pressure;BME280_temperature;BME280_humidity;BME280_pressure;Samples;Min_cycle;Max_cycle;Signal;HPM_P1;HPM_P2
2023/03/05 00:01:38;;;;;;;1999.90;999.90;;;4.50;99.90;;;;;;5083425;28;20495;-70
2023/03/05 00:04:11;;;;;;;1999.90;999.90;;;4.40;99.90;;;;;;5081877;28;20463;-69
2023/03/05 00:06:38;;;;;;;1999.90;999.90;;;4.50;99.90;;;;;;5082055;28;20450;-69
2023/03/05 00:09:05;;;;;;;1999.90;999.90;;;4.40;99.90;;;;;;5083013;28;20926;-71
2023/03/05 00:11:33;;;;;;;1999.90;999.90;;;4.40;99.90;;;;;;5084564;28;20442;-70
2023/03/05 00:14:02;;;;;;;1999.90;999.90;;;4.40;99.90;;;;;;5079783;28;21153;-71
2023/03/05 00:16:29;;;;;;;1999.90;999.90;;;4.40;99.90;;;;;;5081881;28;20454;-70
2023/03/05 00:18:58;;;;;;;1999.90;999.90;;;4.40;99.90;;;;;;5083218;28;20439;-71
2023/03/05 00:21:28;;;;;;;1999.90;999.90;;;4.40;99.90;;;;;;5082416;28;20471;-69
2023/03/05 00:23:56;;;;;;;1999.90;999.90;;;4.50;99.90;;;;;;5078282;28;20466;-70
2023/03/05 00:26:25;;;;;;;1999.90;999.90;;;4.40;99.90;;;;;;5082190;28;20450;-70
2023/03/05 00:28:52;;;;;;;1999.90;999.90;;;4.40;99.90;;;;;;5082900;28;20446;-71
2023/03/05 00:31:21;;;;;;;1999.90;999.90;;;4.40;99.90;;;;;;5081197;28;20524;-70
2023/03/05 00:33:53;;;;;;;1999.90;999.90;;;4.40;99.90;;;;;;5079915;28;20495;-69
2023/03/05 00:36:20;;;;;;;1999.90;999.90;;;4.40;99.90;;;;;;5081339;28;20443;-69
2023/03/05 00:38:48;;;;;;;1999.90;999.90;;;4.40;99.90;;;;;;5080901;28;20440;-70
2023/03/05 00:41:15;;;;;;;1999.90;999.90;;;4.40;99.90;;;;;;5082957;28;20525;-70
2023/03/05 00:43:42;;;;;;;1999.90;999.90;;;4.50;99.90;;;;;;5080030;28;20466;-69
2023/03/05 00:46:09;;;;;;;1999.90;999.90;;;4.50;99.90;;;;;;5080878;28;20438;-69
2023/03/05 00:48:36;;;;;;;1999.90;999.90;;;4.50;99.90;;;;;;5082588;28;20438;-70
2023/03/05 00:51:03;;;;;;;1999.90;999.90;;;4.50;99.90;;;;;;5089231;28;20478;-70
2023/03/05 00:53:30;;;;;;;1999.90;999.90;;;4.50;99.90;;;;;;5089755;28;21010;-70
2023/03/05 00:55:58;;;;;;;1999.90;999.90;;;4.60;99.90;;;;;;5091468;28;20462;-71
2023/03/05 00:58:25;;;;;;;1999.90;999.90;;;4.60;99.90;;;;;;5091420;28;20443;-70
2023/03/05 01:00:52;;;;;;;1999.90;999.90;;;4.60;99.90;;;;;;5091038;28;20940;-70
2023/03/05 01:03:19;;;;;;;1999.90;999.90;;;4.60;99.90;;;;;;5090145;28;20466;-69
2023/03/05 01:05:46;;;;;;;1999.90;999.90;;;4.60;99.90;;;;;;5091557;28;20446;-70
2023/03/05 01:08:13;;;;;;;1999.90;999.90;;;4.60;99.90;;;;;;5091583;28;20452;-70
2023/03/05 01:10:39;;;;;;;1999.90;999.90;;;4.60;99.90;;;;;;5091232;28;20484;-70
2023/03/05 01:13:07;;;;;;;1999.90;999.90;;;4.60;99.90;;;;;;5087997;28;20625;-69
2023/03/05 01:15:34;;;;;;;1999.90;999.90;;;4.70;99.90;;;;;;5090265;28;20452;-71
2023/03/05 01:18:01;;;;;;;1999.90;999.90;;;4.60;99.90;;;;;;5089095;28;20450;-70
2023/03/05 01:20:28;;;;;;;1999.90;999.90;;;4.60;99.90;;;;;;5091340;28;20434;-70
2023/03/05 01:22:55;;;;;;;1999.90;999.90;;;4.60;99.90;;;;;;5089893;28;20820;-71
2023/03/05 01:25:22;;;;;;;1999.90;999.90;;;4.60;99.90;;;;;;5091513;28;20450;-70
2023/03/05 01:27:48;;;;;;;1999.90;999.90;;;4.70;99.90;;;;;;5091047;28;20835;-69
2023/03/05 01:30:17;;;;;;;1999.90;999.90;;;4.60;99.90;;;;;;5091030;28;20486;-70
2023/03/05 01:32:43;;;;;;;1999.90;999.90;;;4.60;99.90;;;;;;5089919;28;20525;-71
2023/03/05 01:35:17;;;;;;;1999.90;999.90;;;4.50;99.90;;;;;;5090601;28;20454;-70
2023/03/05 01:37:44;;;;;;;1999.90;999.90;;;4.50;99.90;;;;;;5091037;28;20474;-70
2023/03/05 01:40:14;;;;;;;1999.90;999.90;;;4.50;99.90;;;;;;5090803;28;20446;-69
2023/03/05 01:42:47;;;;;;;1999.90;999.90;;;4.50;99.90;;;;;;5089201;28;20927;-70
2023/03/05 01:45:18;;;;;;;1999.90;999.90;;;4.60;99.90;;;;;;5090881;28;20454;-71
2023/03/05 01:47:45;;;;;;;1999.90;999.90;;;4.60;99.90;;;;;;5089999;28;20438;-69
2023/03/05 01:50:16;;;;;;;1999.90;999.90;;;4.60;99.90;;;;;;5090635;28;20486;-70
2023/03/05 01:52:49;;;;;;;1999.90;999.90;;;4.60;99.90;;;;;;5089689;28;20450;-70
2023/03/05 01:55:19;;;;;;;1999.90;999.90;;;4.70;99.90;;;;;;5090755;28;20952;-69
2023/03/05 01:57:49;;;;;;;1999.90;999.90;;;4.70;99.90;;;;;;5090486;28;20450;-70
2023/03/05 02:00:22;;;;;;;1999.90;999.90;;;4.60;99.90;;;;;;5090600;28;20438;-70
2023/03/05 02:02:51;;;;;;;1999.90;999.90;;;4.70;99.90;;;;;;5089618;28;20449;-70
2023/03/05 02:05:25;;;;;;;1999.90;999.90;;;4.70;99.90;;;;;;5090515;28;20951;-70
2023/03/05 02:07:53;;;;;;;1999.90;999.90;;;4.70;99.90;;;;;;5090514;28;20481;-70
2023/03/05 02:10:22;;;;;;;1999.90;999.90;;;4.60;99.90;;;;;;5089934;28;20477;-70
2023/03/05 02:12:50;;;;;;;1999.90;999.90;;;4.60;99.90;;;;;;5089276;28;20442;-70
2023/03/05 02:15:18;;;;;;;1999.90;999.90;;;4.70;99.90;;;;;;5090313;28;20461;-70
2023/03/05 02:17:45;;;;;;;1999.90;999.90;;;4.70;99.90;;;;;;5090335;28;20450;-71
2023/03/05 02:20:15;;;;;;;1999.90;999.90;;;4.70;99.90;;;;;;5090076;28;20820;-68
2023/03/05 02:22:43;;;;;;;1999.90;999.90;;;4.60;99.90;;;;;;5088971;28;20473;-70
2023/03/05 02:25:15;;;;;;;1999.90;999.90;;;4.60;99.90;;;;;;5089858;28;20446;-70
2023/03/05 02:27:44;;;;;;;1999.90;999.90;;;4.60;99.90;;;;;;5090127;28;20449;-72
2023/03/05 02:30:12;;;;;;;1999.90;999.90;;;4.60;99.90;;;;;;5089889;28;20593;-69
2023/03/05 02:32:39;;;;;;;1999.90;999.90;;;4.60;99.90;;;;;;5088860;28;20453;-70
2023/03/05 02:35:06;;;;;;;1999.90;999.90;;;4.60;99.90;;;;;;5089818;28;20985;-71
2023/03/05 02:37:33;;;;;;;1999.90;999.90;;;4.60;99.90;;;;;;5089792;28;20442;-71
2023/03/05 02:40:01;;;;;;;1999.90;999.90;;;4.60;99.90;;;;;;5090102;28;20439;-70
2023/03/05 02:42:32;;;;;;;1999.90;999.90;;;4.60;99.90;;;;;;5089351;28;20485;-70
2023/03/05 02:44:59;;;;;;;1999.90;999.90;;;4.60;99.90;;;;;;5090473;28;20569;-70
2023/03/05 02:47:26;;;;;;;1999.90;999.90;;;4.50;99.90;;;;;;5092733;28;20812;-71
2023/03/05 02:49:52;;;;;;;1999.90;999.90;;;4.60;99.90;;;;;;5094303;28;20438;-71
2023/03/05 02:52:19;;;;;;;1999.90;999.90;;;4.50;99.90;;;;;;5094049;28;20454;-69
2023/03/05 02:54:46;;;;;;;1999.90;999.90;;;4.50;99.90;;;;;;5093105;28;20569;-69
2023/03/05 02:57:14;;;;;;;1999.90;999.90;;;4.60;99.90;;;;;;5093912;28;20823;-71
2023/03/05 02:59:42;;;;;;;1999.90;999.90;;;4.50;99.90;;;;;;5093936;28;20446;-70
2023/03/05 03:02:08;;;;;;;1999.90;999.90;;;4.50;99.90;;;;;;5093223;28;20959;-70
2023/03/05 03:04:35;;;;;;;1999.90;999.90;;;4.50;99.90;;;;;;5092580;28;20462;-69
2023/03/05 03:07:02;;;;;;;1999.90;999.90;;;4.60;99.90;;;;;;5093756;28;20507;-71
2023/03/05 03:09:29;;;;;;;1999.90;999.90;;;4.70;99.90;;;;;;5093582;28;20442;-68
2023/03/05 03:11:56;;;;;;;1999.90;999.90;;;4.70;99.90;;;;;;5093649;28;20484;-70
2023/03/05 03:14:24;;;;;;;1999.90;999.90;;;4.70;99.90;;;;;;5092501;28;20470;-70
2023/03/05 03:16:50;;;;;;;1999.90;999.90;;;4.70;99.90;;;;;;5093655;28;20446;-70
2023/03/05 03:19:17;;;;;;;1999.90;999.90;;;4.70;99.90;;;;;;5093271;28;20822;-69
2023/03/05 03:21:44;;;;;;;1999.90;999.90;;;4.60;99.90;;;;;;5093835;28;20434;-70
2023/03/05 03:24:11;;;;;;;1999.90;999.90;;;4.60;99.90;;;;;;5092311;28;20470;-70
2023/03/05 03:26:37;;;;;;;1999.90;999.90;;;4.60;99.90;;;;;;5093477;28;20446;-69
2023/03/05 03:29:04;;;;;;;1999.90;999.90;;;4.60;99.90;;;;;;5093744;28;20524;-70
2023/03/05 03:31:32;;;;;;;1999.90;999.90;;;4.50;99.90;;;;;;5093465;28;20873;-70
2023/03/05 03:33:59;;;;;;;1999.90;999.90;;;4.60;99.90;;;;;;5092007;28;20842;-70
2023/03/05 03:36:26;;;;;;;1999.90;999.90;;;4.60;99.90;;;;;;5094091;28;20446;-70
2023/03/05 03:38:53;;;;;;;1999.90;999.90;;;4.60;99.90;;;;;;5093835;28;20442;-71
2023/03/05 03:41:19;;;;;;;1999.90;999.90;;;4.60;99.90;;;;;;5093589;28;20442;-70
2023/03/05 03:43:46;;;;;;;1999.90;999.90;;;4.60;99.90;;;;;;5091826;28;20475;-69
2023/03/05 03:46:13;;;;;;;1999.90;999.90;;;4.50;99.90;;;;;;5093156;28;20453;-71
2023/03/05 03:48:41;;;;;;;1999.90;999.90;;;4.60;99.90;;;;;;5093899;28;20442;-71
2023/03/05 03:51:08;;;;;;;1999.90;999.90;;;4.50;99.90;;;;;;5093265;28;20485;-70
2023/03/05 03:53:35;;;;;;;1999.90;999.90;;;4.60;99.90;;;;;;5091970;28;20462;-70
2023/03/05 03:56:02;;;;;;;1999.90;999.90;;;4.60;99.90;;;;;;5093233;28;20934;-70
2023/03/05 03:58:29;;;;;;;1999.90;999.90;;;4.60;99.90;;;;;;5093094;28;20446;-69
2023/03/05 04:00:56;;;;;;;1999.90;999.90;;;4.70;99.90;;;;;;5093004;28;20495;-71
2023/03/05 04:03:22;;;;;;;1999.90;999.90;;;4.70;99.90;;;;;;5092101;28;20466;-69
2023/03/05 04:05:50;;;;;;;1999.90;999.90;;;4.60;99.90;;;;;;5092926;28;20818;-70
2023/03/05 04:08:17;;;;;;;1999.90;999.90;;;4.70;99.90;;;;;;5092724;28;20810;-69
2023/03/05 04:10:44;;;;;;;1999.90;999.90;;;4.70;99.90;;;;;;5092619;28;20488;-71
2023/03/05 04:13:11;;;;;;;1999.90;999.90;;;4.70;99.90;;;;;;5091494;28;20470;-69
2023/03/05 04:15:38;;;;;;;1999.90;999.90;;;4.70;99.90;;;;;;5092351;28;20445;-70
2023/03/05 04:18:05;;;;;;;1999.90;999.90;;;4.80;99.90;;;;;;5092517;28;20461;-69
2023/03/05 04:20:31;;;;;;;1999.90;999.90;;;4.80;99.90;;;;;;5092385;28;20442;-69
2023/03/05 04:22:59;;;;;;;1999.90;999.90;;;4.70;99.90;;;;;;5091035;28;20466;-70
2023/03/05 04:25:26;;;;;;;1999.90;999.90;;;4.70;99.90;;;;;;5092335;28;20442;-70
2023/03/05 04:27:53;;;;;;;1999.90;999.90;;;4.70;99.90;;;;;;5091826;28;20446;-71
2023/03/05 04:30:20;;;;;;;1999.90;999.90;;;4.80;99.90;;;;;;5092146;28;20449;-70
2023/03/05 04:32:47;;;;;;;1999.90;999.90;;;4.70;99.90;;;;;;5090793;28;20458;-70
2023/03/05 04:35:13;;;;;;;1999.90;999.90;;;4.70;99.90;;;;;;5092136;28;20453;-69
2023/03/05 04:37:40;;;;;;;1999.90;999.90;;;4.70;99.90;;;;;;5091315;28;20439;-71
2023/03/05 04:40:11;;;;;;;1999.90;999.90;;;4.70;99.90;;;;;;5090743;28;20453;-70
2023/03/05 04:42:38;;;;;;;1999.90;999.90;;;4.70;99.90;;;;;;5089256;28;20439;-71
2023/03/05 04:45:06;;;;;;;1999.90;999.90;;;4.70;99.90;;;;;;5091141;28;20821;-69
2023/03/05 04:47:33;;;;;;;1999.90;999.90;;;4.70;99.90;;;;;;5091415;28;20828;-69
2023/03/05 04:50:00;;;;;;;1999.90;999.90;;;4.70;99.90;;;;;;5090803;28;20822;-70
2023/03/05 04:52:27;;;;;;;1999.90;999.90;;;4.60;99.90;;;;;;5090442;28;20492;-69
2023/03/05 04:54:54;;;;;;;1999.90;999.90;;;4.70;99.90;;;;;;5091112;28;20477;-71
2023/03/05 04:57:22;;;;;;;1999.90;999.90;;;4.70;99.90;;;;;;5091369;28;20450;-70
2023/03/05 04:59:49;;;;;;;1999.90;999.90;;;4.70;99.90;;;;;;5090982;28;20936;-69
2023/03/05 05:02:15;;;;;;;1999.90;999.90;;;4.60;99.90;;;;;;5091141;28;20496;-69
2023/03/05 05:04:44;;;;;;;1999.90;999.90;;;4.60;99.90;;;;;;5090699;28;20454;-70
2023/03/05 05:07:10;;;;;;;1999.90;999.90;;;4.60;99.90;;;;;;5091286;28;20545;-71
2023/03/05 05:09:38;;;;;;;1999.90;999.90;;;4.60;99.90;;;;;;5090512;28;20453;-71
2023/03/05 05:12:05;;;;;;;1999.90;999.90;;;4.50;99.90;;;;;;5090590;28;21025;-68
2023/03/05 05:14:35;;;;;;;1999.90;999.90;;;4.50;99.90;;;;;;5090186;28;20471;-70
2023/03/05 05:17:03;;;;;;;1999.90;999.90;;;4.40;99.90;;;;;;5091069;28;20461;-71
2023/03/05 05:19:30;;;;;;;1999.90;999.90;;;4.50;99.90;;;;;;5091215;28;20481;-69
2023/03/05 05:21:57;;;;;;;1999.90;999.90;;;4.50;99.90;;;;;;5090846;28;20445;-70
2023/03/05 05:24:24;;;;;;;1999.90;999.90;;;4.50;99.90;;;;;;5089894;28;20470;-70
2023/03/05 05:26:51;;;;;;;1999.90;999.90;;;4.50;99.90;;;;;;5090774;28;20442;-69
2023/03/05 05:29:18;;;;;;;1999.90;999.90;;;4.40;99.90;;;;;;5091016;28;20446;-70
2023/03/05 05:31:46;;;;;;;1999.90;999.90;;;4.40;99.90;;;;;;5090835;28;20496;-70
2023/03/05 05:34:12;;;;;;;1999.90;999.90;;;4.30;99.90;;;;;;5089609;28;20470;-70
2023/03/05 05:36:39;;;;;;;1999.90;999.90;;;4.30;99.90;;;;;;5090725;28;20442;-70
2023/03/05 05:39:06;;;;;;;1999.90;999.90;;;4.20;99.90;;;;;;5091074;28;20461;-70
2023/03/05 05:41:33;;;;;;;1999.90;999.90;;;4.20;99.90;;;;;;5090922;28;20461;-70
2023/03/05 05:43:59;;;;;;;1999.90;999.90;;;4.30;99.90;;;;;;5089198;28;20988;-69
2023/03/05 05:46:27;;;;;;;1999.90;999.90;;;4.30;99.90;;;;;;5090695;28;20462;-72
2023/03/05 05:48:55;;;;;;;1999.90;999.90;;;4.30;99.90;;;;;;5090746;28;20549;-70
2023/03/05 05:51:24;;;;;;;1999.90;999.90;;;4.30;99.90;;;;;;5090520;28;20474;-70
2023/03/05 05:53:51;;;;;;;1999.90;999.90;;;4.30;99.90;;;;;;5089382;28;20980;-70
2023/03/05 05:56:18;;;;;;;1999.90;999.90;;;4.30;99.90;;;;;;5090953;28;20496;-70
2023/03/05 05:58:47;;;;;;;1999.90;999.90;;;4.30;99.90;;;;;;5090682;28;20483;-71
2023/03/05 06:01:16;;;;;;;1999.90;999.90;;;4.40;99.90;;;;;;5090755;28;20443;-69
2023/03/05 06:03:43;;;;;;;1999.90;999.90;;;4.40;99.90;;;;;;5089406;28;20473;-70
2023/03/05 06:06:13;;;;;;;1999.90;999.90;;;4.40;99.90;;;;;;5090520;28;20449;-70
2023/03/05 06:08:40;;;;;;;1999.90;999.90;;;4.30;99.90;;;;;;5090765;28;20452;-70
2023/03/05 06:11:07;;;;;;;1999.90;999.90;;;4.30;99.90;;;;;;5090840;28;20485;-70
2023/03/05 06:13:35;;;;;;;1999.90;999.90;;;4.20;99.90;;;;;;5089514;28;20489;-70
2023/03/05 06:16:04;;;;;;;1999.90;999.90;;;4.20;99.90;;;;;;5090707;28;20446;-70
2023/03/05 06:18:31;;;;;;;1999.90;999.90;;;4.20;99.90;;;;;;5091053;28;20457;-71
2023/03/05 06:20:59;;;;;;;1999.90;999.90;;;4.20;99.90;;;;;;5089822;28;20435;-70
2023/03/05 06:23:29;;;;;;;1999.90;999.90;;;4.20;99.90;;;;;;5089594;28;20466;-70
2023/03/05 06:25:59;;;;;;;1999.90;999.90;;;4.30;99.90;;;;;;5090188;28;20449;-71
2023/03/05 06:28:26;;;;;;;1999.90;999.90;;;4.40;99.90;;;;;;5090102;28;20442;-70
2023/03/05 06:31:00;;;;;;;1999.90;999.90;;;4.40;99.90;;;;;;5089726;28;20806;-70
2023/03/05 06:33:27;;;;;;;1999.90;999.90;;;4.40;99.90;;;;;;5089112;28;20473;-70
2023/03/05 06:35:53;;;;;;;1999.90;999.90;;;4.40;99.90;;;;;;5089940;28;20442;-69
2023/03/05 06:38:20;;;;;;;1999.90;999.90;;;4.40;99.90;;;;;;5089969;28;20434;-69
2023/03/05 06:40:48;;;;;;;1999.90;999.90;;;4.40;99.90;;;;;;5089735;28;20453;-70
2023/03/05 06:43:15;;;;;;;1999.90;999.90;;;4.60;99.90;;;;;;5088633;28;20464;-69
2023/03/05 06:45:42;;;;;;;1999.90;999.90;;;4.50;99.90;;;;;;5089812;28;20458;-70
2023/03/05 06:48:09;;;;;;;1999.90;999.90;;;4.50;99.90;;;;;;5089846;28;20442;-70
2023/03/05 06:50:36;;;;;;;1999.90;999.90;;;4.60;99.90;;;;;;5089738;28;20446;-70
2023/03/05 06:53:03;;;;;;;1999.90;999.90;;;4.60;99.90;;;;;;5088553;28;20492;-70
2023/03/05 06:55:30;;;;;;;1999.90;999.90;;;4.60;99.90;;;;;;5089817;28;20442;-70
2023/03/05 06:57:58;;;;;;;1999.90;999.90;;;4.70;99.90;;;;;;5089365;28;20973;-70
2023/03/05 07:00:28;;;;;;;1999.90;999.90;;;4.70;99.90;;;;;;5089990;28;20450;-70
2023/03/05 07:02:55;;;;;;;1999.90;999.90;;;4.70;99.90;;;;;;5088557;28;20444;-70
2023/03/05 07:05:21;;;;;;;1999.90;999.90;;;4.80;99.90;;;;;;5089647;28;20461;-71
2023/03/05 07:07:48;;;;;;;1999.90;999.90;;;4.90;99.90;;;;;;5089532;28;20443;-69
2023/03/05 07:10:15;;;;;;;1999.90;999.90;;;4.90;99.90;;;;;;5089570;28;20442;-69
2023/03/05 07:12:42;;;;;;;1999.90;999.90;;;4.90;99.90;;;;;;5087981;28;20536;-70
2023/03/05 07:15:11;;;;;;;1999.90;999.90;;;5.00;99.90;;;;;;5089883;28;20442;-71
2023/03/05 07:17:38;;;;;;;1999.90;999.90;;;4.90;99.90;;;;;;5089712;28;20483;-70
2023/03/05 07:20:05;;;;;;;1999.90;999.90;;;4.90;99.90;;;;;;5089312;28;20958;-70
2023/03/05 07:22:32;;;;;;;1999.90;999.90;;;4.90;99.90;;;;;;5088319;28;20438;-70
2023/03/05 07:24:59;;;;;;;1999.90;999.90;;;4.90;99.90;;;;;;5076781;28;20459;-71
2023/03/05 07:27:26;;;;;;;1999.90;999.90;;;4.90;99.90;;;;;;5069332;28;20451;-70
2023/03/05 07:29:53;;;;;;;1999.90;999.90;;;4.90;99.90;;;;;;5069390;28;20447;-69
2023/03/05 07:32:21;;;;;;;1999.90;999.90;;;5.00;99.90;;;;;;5069322;28;20489;-71
2023/03/05 07:34:47;;;;;;;1999.90;999.90;;;5.00;99.90;;;;;;5072353;28;20459;-70
2023/03/05 07:37:14;;;;;;;1999.90;999.90;;;5.10;99.90;;;;;;5072890;28;20442;-70
2023/03/05 07:39:41;;;;;;;1999.90;999.90;;;5.20;99.90;;;;;;5073005;28;20443;-69
2023/03/05 07:42:08;;;;;;;1999.90;999.90;;;5.20;99.90;;;;;;5072706;28;20505;-72
2023/03/05 07:44:34;;;;;;;1999.90;999.90;;;5.20;99.90;;;;;;5072093;28;20475;-69
2023/03/05 07:47:01;;;;;;;1999.90;999.90;;;5.20;99.90;;;;;;5073191;28;20462;-70
2023/03/05 07:49:29;;;;;;;1999.90;999.90;;;5.30;99.90;;;;;;5072849;28;20454;-69
2023/03/05 07:51:56;;;;;;;1999.90;999.90;;;5.30;99.90;;;;;;5072931;28;20494;-69
2023/03/05 07:54:23;;;;;;;1999.90;999.90;;;5.40;99.90;;;;;;5071211;28;20466;-70
2023/03/05 07:56:50;;;;;;;1999.90;999.90;;;5.40;99.90;;;;;;5073079;28;20460;-70
2023/03/05 07:59:16;;;;;;;1999.90;999.90;;;5.40;99.90;;;;;;5072880;28;20451;-70
2023/03/05 08:01:45;;;;;;;1999.90;999.90;;;5.40;99.90;;;;;;5073285;28;20447;-69
2023/03/05 08:04:12;;;;;;;1999.90;999.90;;;5.50;99.90;;;;;;5071217;28;21079;-70
2023/03/05 08:06:41;;;;;;;1999.90;999.90;;;5.60;99.90;;;;;;5072349;28;20957;-70
2023/03/05 08:09:08;;;;;;;1999.90;999.90;;;5.60;99.90;;;;;;5075028;28;20897;-70
2023/03/05 08:11:35;;;;;;;1999.90;999.90;;;5.60;99.90;;;;;;5076991;28;20442;-71
2023/03/05 08:14:03;;;;;;;1999.90;999.90;;;5.60;99.90;;;;;;5075445;28;20843;-70
2023/03/05 08:16:30;;;;;;;1999.90;999.90;;;5.50;99.90;;;;;;5077686;28;20504;-69
2023/03/05 08:18:58;;;;;;;1999.90;999.90;;;5.50;99.90;;;;;;5075616;28;20525;-70
2023/03/05 08:21:28;;;;;;;1999.90;999.90;;;5.50;99.90;;;;;;5073753;28;20435;-71
2023/03/05 08:23:56;;;;;;;1999.90;999.90;;;5.50;99.90;;;;;;5071332;28;20466;-70
2023/03/05 08:26:26;;;;;;;1999.90;999.90;;;5.50;99.90;;;;;;5071938;28;20439;-70
2023/03/05 08:28:52;;;;;;;1999.90;999.90;;;5.50;99.90;;;;;;5072056;28;20435;-68
2023/03/05 08:31:21;;;;;;;1999.90;999.90;;;5.50;99.90;;;;;;5071679;28;20439;-70
2023/03/05 08:33:49;;;;;;;1999.90;999.90;;;5.50;99.90;;;;;;5070283;28;20491;-69
2023/03/05 08:36:16;;;;;;;1999.90;999.90;;;5.50;99.90;;;;;;5071729;28;20466;-70
2023/03/05 08:38:45;;;;;;;1999.90;999.90;;;5.60;99.90;;;;;;5071841;28;20439;-70
2023/03/05 08:41:14;;;;;;;1999.90;999.90;;;5.60;99.90;;;;;;5071741;28;20450;-69
2023/03/05 08:43:41;;;;;;;1999.90;999.90;;;5.60;99.90;;;;;;5069809;28;20470;-69
2023/03/05 08:46:09;;;;;;;1999.90;999.90;;;5.50;99.90;;;;;;5071493;28;20439;-70
2023/03/05 08:48:36;;;;;;;1999.90;999.90;;;5.40;99.90;;;;;;5071879;28;20443;-71
2023/03/05 08:51:07;;;;;;;1999.90;999.90;;;5.40;99.90;;;;;;5071546;28;20443;-69
2023/03/05 08:53:34;;;;;;;1999.90;999.90;;;5.40;99.90;;;;;;5070408;28;20482;-71
2023/03/05 08:56:01;;;;;;;1999.90;999.90;;;5.40;99.90;;;;;;5072395;28;20447;-70
2023/03/05 08:58:29;;;;;;;1999.90;999.90;;;5.30;99.90;;;;;;5073990;28;20864;-68
2023/03/05 09:00:56;;;;;;;1999.90;999.90;;;5.30;99.90;;;;;;5073466;28;20813;-70
2023/03/05 09:03:23;;;;;;;1999.90;999.90;;;5.30;99.90;;;;;;5070144;28;20992;-70
2023/03/05 09:05:51;;;;;;;1999.90;999.90;;;5.30;99.90;;;;;;5071503;28;20967;-69
2023/03/05 09:08:18;;;;;;;1999.90;999.90;;;5.50;99.90;;;;;;5071317;28;20447;-71
2023/03/05 09:10:46;;;;;;;1999.90;999.90;;;5.60;99.90;;;;;;5071548;28;20446;-69
2023/03/05 09:13:13;;;;;;;1999.90;999.90;;;5.60;99.90;;;;;;5069874;28;20493;-70
2023/03/05 09:15:41;;;;;;;1999.90;999.90;;;5.80;99.90;;;;;;5071142;28;20439;-70
2023/03/05 09:18:08;;;;;;;1999.90;999.90;;;5.80;99.90;;;;;;5071315;28;20454;-69
2023/03/05 09:20:35;;;;;;;1999.90;999.90;;;5.80;99.90;;;;;;5071228;28;20439;-69
2023/03/05 09:23:02;;;;;;;1999.90;999.90;;;5.80;99.90;;;;;;5069684;28;20833;-70
2023/03/05 09:25:29;;;;;;;1999.90;999.90;;;5.90;99.90;;;;;;5070626;28;20450;-69
2023/03/05 09:27:56;;;;;;;1999.90;999.90;;;6.00;99.90;;;;;;5073355;28;21943;-70
2023/03/05 09:30:23;;;;;;;1999.90;999.90;;;6.20;99.90;;;;;;5079333;28;20451;-69
2023/03/05 09:32:51;;;;;;;1999.90;999.90;;;6.20;99.90;;;;;;5073543;28;20474;-69
2023/03/05 09:35:18;;;;;;;1999.90;999.90;;;6.30;99.90;;;;;;5076270;28;20818;-69
2023/03/05 09:37:45;;;;;;;1999.90;999.90;;;6.30;99.90;;;;;;5088647;28;20525;-70
2023/03/05 09:40:15;;;;;;;1999.90;999.90;;;6.50;99.90;;;;;;5085653;28;20448;-70
2023/03/05 09:43:10;;;;;;;1999.90;999.90;;;6.60;99.90;;;;;;5078450;28;20446;-69
2023/03/05 09:45:42;;;;;;;1999.90;999.90;;;6.50;99.90;;;;;;5061754;28;20462;-70
2023/03/05 09:48:17;;;;;;;1999.90;999.90;;;6.50;99.90;;;;;;5075270;28;20443;-69
2023/03/05 09:50:49;;;;;;;1999.90;999.90;;;6.40;99.90;;;;;;5090631;28;20452;-70
2023/03/05 09:53:23;;;;;;;1999.90;999.90;;;6.20;99.90;;;;;;5075658;28;20487;-70
2023/03/05 09:55:52;;;;;;;1999.90;999.90;;;6.30;99.90;;;;;;5086869;28;20485;-69
2023/03/05 09:58:28;;;;;;;1999.90;999.90;;;6.30;99.90;;;;;;5076148;28;20521;-69
2023/03/05 10:00:59;;;;;;;1999.90;999.90;;;6.30;99.90;;;;;;5079124;28;20447;-70
2023/03/05 10:03:31;;;;;;;1999.90;999.90;;;6.30;99.90;;;;;;5084215;28;20455;-71
2023/03/05 10:06:11;;;;;;;1999.90;999.90;;;6.30;99.90;;;;;;5073708;28;20443;-70
2023/03/05 10:08:48;;;;;;;1999.90;999.90;;;6.20;99.90;;;;;;5080155;28;20454;-70
2023/03/05 10:11:34;;;;;;;1999.90;999.90;;;6.20;99.90;;;;;;5083390;28;20439;-70
2023/03/05 10:14:01;;;;;;;1999.90;999.90;;;6.10;99.90;;;;;;5076978;28;20999;-70
2023/03/05 10:16:52;;;;;;;1999.90;999.90;;;6.00;99.90;;;;;;5087544;28;20454;-71
2023/03/05 10:19:41;;;;;;;1999.90;999.90;;;6.10;99.90;;;;;;5069791;28;21009;-69
2023/03/05 10:22:18;;;;;;;1999.90;999.90;;;6.00;99.90;;;;;;5069297;28;20979;-71
2023/03/05 10:25:00;;;;;;;1999.90;999.90;;;5.90;99.90;;;;;;5069129;28;21012;-71
2023/03/05 10:27:39;;;;;;;1999.90;999.90;;;6.00;99.90;;;;;;5069882;28;20454;-70
2023/03/05 10:30:26;;;;;;;1999.90;999.90;;;6.10;99.90;;;;;;5069812;28;20493;-71
2023/03/05 10:32:59;;;;;;;1999.90;999.90;;;6.10;99.90;;;;;;5068529;28;20536;-70
2023/03/05 10:35:42;;;;;;;1999.90;999.90;;;6.00;99.90;;;;;;5069976;28;20470;-71
2023/03/05 10:38:25;;;;;;;1999.90;999.90;;;6.00;99.90;;;;;;5069784;28;20518;-70
2023/03/05 10:40:54;;;;;;;1999.90;999.90;;;5.90;99.90;;;;;;5069815;28;20457;-70
2023/03/05 10:43:27;;;;;;;1999.90;999.90;;;6.00;99.90;;;;;;5069206;28;20478;-70
2023/03/05 10:45:56;;;;;;;1999.90;999.90;;;6.00;99.90;;;;;;5070395;28;20534;-70
2023/03/05 10:48:36;;;;;;;1999.90;999.90;;;6.00;99.90;;;;;;5085196;28;20446;-70
2023/03/05 10:51:13;;;;;;;1999.90;999.90;;;6.10;99.90;;;;;;5079507;28;20444;-69
2023/03/05 10:53:48;;;;;;;1999.90;999.90;;;6.10;99.90;;;;;;5072892;28;20485;-71
2023/03/05 10:56:18;;;;;;;1999.90;999.90;;;6.20;99.90;;;;;;5086209;28;20443;-70
2023/03/05 10:58:45;;;;;;;1999.90;999.90;;;6.40;99.90;;;;;;5076577;28;20445;-70
2023/03/05 11:01:30;;;;;;;1999.90;999.90;;;6.50;99.90;;;;;;5089260;28;20525;-70
2023/03/05 11:03:59;;;;;;;1999.90;999.90;;;6.70;99.90;;;;;;5088825;28;20458;-71
2023/03/05 11:06:36;;;;;;;1999.90;999.90;;;6.70;99.90;;;;;;5089877;28;20442;-69
2023/03/05 11:09:20;;;;;;;1999.90;999.90;;;6.60;99.90;;;;;;5094084;28;20520;-70
2023/03/05 11:12:13;;;;;;;1999.90;999.90;;;6.50;99.90;;;;;;5093880;28;20510;-70
2023/03/05 11:14:42;;;;;;;1999.90;999.90;;;6.40;99.90;;;;;;5091597;28;20496;-69
2023/03/05 11:17:31;;;;;;;1999.90;999.90;;;6.30;99.90;;;;;;5093545;28;20458;-70
2023/03/05 11:20:33;;;;;;;1999.90;999.90;;;6.30;99.90;;;;;;5093555;28;20454;-70
2023/03/05 11:23:10;;;;;;;1999.90;999.90;;;6.30;99.90;;;;;;5090203;28;20472;-69
2023/03/05 11:25:56;;;;;;;1999.90;999.90;;;6.20;99.90;;;;;;5093430;28;20457;-69
2023/03/05 11:28:26;;;;;;;1999.90;999.90;;;6.20;99.90;;;;;;5093482;28;20485;-68
2023/03/05 11:31:00;;;;;;;1999.90;999.90;;;6.20;99.90;;;;;;5093327;28;20442;-69
2023/03/05 11:33:29;;;;;;;1999.90;999.90;;;6.30;99.90;;;;;;5091790;28;20480;-69
2023/03/05 11:36:30;;;;;;;1999.90;999.90;;;6.30;99.90;;;;;;5093220;28;20473;-68
2023/03/05 11:39:13;;;;;;;1999.90;999.90;;;6.30;99.90;;;;;;5092877;28;20525;-69
2023/03/05 11:41:43;;;;;;;1999.90;999.90;;;6.40;99.90;;;;;;5091262;28;20548;-69
2023/03/05 11:44:14;;;;;;;1999.90;999.90;;;6.40;99.90;;;;;;5084663;28;20489;-71
2023/03/05 11:46:43;;;;;;;1999.90;999.90;;;6.50;99.90;;;;;;5072595;28;20512;-68
2023/03/05 11:49:16;;;;;;;1999.90;999.90;;;6.50;99.90;;;;;;5071982;28;20443;-69
2023/03/05 11:51:48;;;;;;;1999.90;999.90;;;6.50;99.90;;;;;;5071873;28;20496;-69
2023/03/05 11:54:24;;;;;;;1999.90;999.90;;;6.60;99.90;;;;;;5070457;28;20482;-69
2023/03/05 11:56:52;;;;;;;1999.90;999.90;;;6.80;99.90;;;;;;5072257;28;20447;-69
2023/03/05 11:59:22;;;;;;;1999.90;999.90;;;6.90;99.90;;;;;;5072031;28;20477;-70
2023/03/05 12:01:51;;;;;;;1999.90;999.90;;;7.00;99.90;;;;;;5072032;28;20481;-70
2023/03/05 12:04:19;;;;;;;1999.90;999.90;;;6.90;99.90;;;;;;5070040;28;20467;-69
2023/03/05 12:06:50;;;;;;;1999.90;999.90;;;6.80;99.90;;;;;;5072563;28;20454;-68
2023/03/05 12:09:25;;;;;;;1999.90;999.90;;;6.80;99.90;;;;;;5075269;28;20458;-69
2023/03/05 12:12:01;;;;;;;1999.90;999.90;;;6.80;99.90;;;;;;5081449;28;20454;-68
2023/03/05 12:14:36;;;;;;;1999.90;999.90;;;6.80;99.90;;;;;;5079776;28;20493;-69
2023/03/05 12:17:09;;;;;;;1999.90;999.90;;;6.90;99.90;;;;;;5082026;28;20442;-68
2023/03/05 12:19:51;;;;;;;1999.90;999.90;;;6.90;99.90;;;;;;5087384;28;20452;-68